Time,TemperatureF,DewpointF,PressureIn,WindDirection,WindDirectionDegrees,WindSpeedMPH,WindSpeedGustMPH,Humidity,HourlyPrecipIn,Conditions,Clouds,dailyrainin,SolarRadiationWatts/m^2,SoftwareType,DateUTC
2013-03-04 00:02:00,47.6,43.3,29.97,East,83,0.0,0.0,85,0.00,,,0.00,0,Wunderground v.1.15,2013-03-04 08:02:00,
2013-03-04 00:08:00,47.5,43.2,29.97,East,83,0.0,0.0,85,0.00,,,0.00,0,Wunderground v.1.15,2013-03-04 08:08:00,
2013-03-04 00:14:00,47.3,43.0,29.97,East,83,0.0,0.0,85,0.00,,,0.00,0,Wunderground v.1.15,2013-03-04 08:14:00,
2013-03-04 00:20:00,47.3,43.0,29.97,East,83,0.0,0.0,85,0.00,,,0.00,0,Wunderground v.1.15,2013-03-04 08:20:00,
2013-03-04 00:26:00,47.3,43.0,29.98,East,83,0.0,0.0,85,0.00,,,0.00,0,Wunderground v.1.15,2013-03-04 08:26:00,
2013-03-04 00:32:00,47.2,42.9,29.98,East,83,0.0,0.0,85,0.00,,,0.00,0,Wunderground v.1.15,2013-03-04 08:32:00,
2013-03-04 00:38:00,47.1,42.8,29.98,East,83,0.0,0.0,85,0.00,,,0.00,0,Wunderground v.1.15,2013-03-04 08:38:00,
2013-03-04 00:44:00,46.9,42.6,29.98,East,83,0.0,0.0,85,0.00,,,0.00,0,Wunderground v.1.15,2013-03-04 08:44:00,
2013-03-04 00:50:00,46.9,42.6,29.98,East,83,0.0,0.0,85,0.00,,,0.00,0,Wunderground v.1.15,2013-03-04 08:50:00,
2013-03-04 00:56:00,46.7,42.4,29.98,East,83,0.0,0.0,85,0.00,,,0.00,0,Wunderground v.1.15,2013-03-04 08:56:00,
2013-03-04 01:02:00,46.5,42.2,29.99,East,83,0.0,0.0,85,0.00,,,0.00,0,Wunderground v.1.15,2013-03-04 09:02:00,
2013-03-04 01:08:00,46.4,42.1,29.99,East,83,0.0,0.0,85,0.00,,,0.00,0,Wunderground v.1.15,2013-03-04 09:08:00,
2013-03-04 01:14:00,46.3,42.3,29.99,East,83,0.0,0.0,86,0.00,,,0.00,0,Wunderground v.1.15,2013-03-04 09:14:00,
2013-03-04 01:20:00,46.1,42.1,29.99,East,83,0.0,0.0,86,0.00,,,0.00,0,Wunderground v.1.15,2013-03-04 09:20:00,
2013-03-04 01:26:00,46.0,42.0,29.99,East,83,0.0,0.0,86,0.00,,,0.00,0,Wunderground v.1.15,2013-03-04 09:26:00,
2013-03-04 01:32:00,45.9,41.9,29.99,East,83,0.0,0.0,86,0.00,,,0.00,0,Wunderground v.1.15,2013-03-04 09:32:00,
2013-03-04 01:38:00,45.8,41.9,29.99,East,83,0.0,0.0,86,0.00,,,0.00,0,Wunderground v.1.15,2013-03-04 09:38:00,
2013-03-04 01:44:00,45.7,41.8,29.99,East,83,0.0,0.0,86,0.00,,,0.00,0,Wunderground v.1.15,2013-03-04 09:44:00,
2013-03-04 01:50:00,45.6,41.7,30.00,East,83,0.0,0.0,86,0.00,,,0.00,0,Wunderground v.1.15,2013-03-04 09:50:00,
2013-03-04 01:56:00,45.6,41.7,29.99,East,83,0.0,0.0,86,0.00,,,0.00,0,Wunderground v.1.15,2013-03-04 09:56:00,
2013-03-04 02:02:00,45.5,41.6,30.00,East,83,0.0,0.0,86,0.00,,,0.00,0,Wunderground v.1.15,2013-03-04 10:02:00,
2013-03-04 02:08:00,45.4,41.8,29.99,East,83,0.0,0.0,87,0.00,,,0.00,0,Wunderground v.1.15,2013-03-04 10:08:00,
2013-03-04 02:14:00,45.4,41.8,30.00,East,83,0.0,0.0,87,0.00,,,0.00,0,Wunderground v.1.15,2013-03-04 10:14:00,
2013-03-04 02:20:00,45.5,41.9,30.00,East,83,0.0,0.0,87,0.00,,,0.00,0,Wunderground v.1.15,2013-03-04 10:20:00,
2013-03-04 02:26:00,45.5,41.9,30.00,East,83,0.0,0.0,87,0.00,,,0.00,0,Wunderground v.1.15,2013-03-04 10:26:00,
2013-03-04 02:32:00,45.5,42.2,30.00,East,83,0.0,0.0,88,0.00,,,0.00,0,Wunderground v.1.15,2013-03-04 10:32:00,
2013-03-04 02:38:00,45.4,42.1,29.99,East,83,0.0,0.0,88,0.00,,,0.00,0,Wunderground v.1.15,2013-03-04 10:38:00,
2013-03-04 02:44:00,45.3,42.0,29.99,East,83,0.0,0.0,88,0.00,,,0.00,0,Wunderground v.1.15,2013-03-04 10:44:00,
2013-03-04 02:50:00,45.1,41.8,30.00,East,83,0.0,0.0,88,0.00,,,0.00,0,Wunderground v.1.15,2013-03-04 10:50:00,
2013-03-04 02:56:00,44.9,41.6,30.00,East,83,0.0,0.0,88,0.00,,,0.00,0,Wunderground v.1.15,2013-03-04 10:56:00,
2013-03-04 03:02:00,44.7,41.4,30.00,East,83,0.0,0.0,88,0.00,,,0.00,0,Wunderground v.1.15,2013-03-04 11:02:00,
2013-03-04 03:08:00,44.6,41.3,30.00,East,83,0.0,0.0,88,0.00,,,0.00,0,Wunderground v.1.15,2013-03-04 11:08:00,
2013-03-04 03:14:00,44.5,41.2,30.00,East,83,0.0,0.0,88,0.00,,,0.00,0,Wunderground v.1.15,2013-03-04 11:14:00,
2013-03-04 03:20:00,44.4,41.1,29.99,East,83,0.0,0.0,88,0.00,,,0.00,0,Wunderground v.1.15,2013-03-04 11:20:00,
2013-03-04 03:26:00,44.2,40.9,29.99,East,83,0.0,0.0,88,0.00,,,0.00,0,Wunderground v.1.15,2013-03-04 11:26:00,
2013-03-04 03:32:00,44.0,40.7,30.00,East,83,0.0,0.0,88,0.00,,,0.00,0,Wunderground v.1.15,2013-03-04 11:32:00,
2013-03-04 03:38:00,43.8,40.5,30.00,East,83,0.0,0.0,88,0.00,,,0.00,0,Wunderground v.1.15,2013-03-04 11:38:00,
2013-03-04 03:44:00,43.6,40.3,30.00,East,83,0.0,0.0,88,0.00,,,0.00,0,Wunderground v.1.15,2013-03-04 11:44:00,
2013-03-04 03:50:00,43.5,40.2,30.00,East,83,0.0,0.0,88,0.00,,,0.00,0,Wunderground v.1.15,2013-03-04 11:50:00,
2013-03-04 03:56:00,43.4,40.4,29.99,East,83,0.0,0.0,89,0.00,,,0.00,0,Wunderground v.1.15,2013-03-04 11:56:00,
2013-03-04 04:02:00,43.3,40.3,29.99,East,83,0.0,0.0,89,0.00,,,0.00,0,Wunderground v.1.15,2013-03-04 12:02:00,
2013-03-04 04:08:00,43.2,40.2,29.99,East,83,0.0,0.0,89,0.00,,,0.00,0,Wunderground v.1.15,2013-03-04 12:08:00,
2013-03-04 04:14:00,43.2,40.2,29.99,East,83,0.0,0.0,89,0.00,,,0.00,0,Wunderground v.1.15,2013-03-04 12:14:00,
2013-03-04 04:20:00,43.2,40.2,29.99,East,83,0.0,0.0,89,0.00,,,0.00,0,Wunderground v.1.15,2013-03-04 12:20:00,
2013-03-04 04:26:00,43.1,40.1,29.99,East,83,0.0,0.0,89,0.00,,,0.00,0,Wunderground v.1.15,2013-03-04 12:26:00,
2013-03-04 04:32:00,43.1,40.1,30.00,East,83,0.0,0.0,89,0.00,,,0.00,0,Wunderground v.1.15,2013-03-04 12:32:00,
2013-03-04 04:38:00,43.0,40.0,30.00,East,83,0.0,0.0,89,0.00,,,0.00,0,Wunderground v.1.15,2013-03-04 12:38:00,
2013-03-04 04:44:00,43.0,40.0,30.00,East,83,0.0,0.0,89,0.00,,,0.00,0,Wunderground v.1.15,2013-03-04 12:44:00,
2013-03-04 04:50:00,42.9,39.9,30.00,East,83,0.0,0.0,89,0.00,,,0.00,0,Wunderground v.1.15,2013-03-04 12:50:00,
2013-03-04 04:56:00,42.9,39.9,30.00,East,83,0.0,0.0,89,0.00,,,0.00,0,Wunderground v.1.15,2013-03-04 12:56:00,
2013-03-04 05:02:00,42.8,39.8,30.00,East,83,0.0,0.0,89,0.00,,,0.00,0,Wunderground v.1.15,2013-03-04 13:02:00,
2013-03-04 05:08:00,42.6,39.6,30.00,East,83,0.0,0.0,89,0.00,,,0.00,0,Wunderground v.1.15,2013-03-04 13:08:00,
2013-03-04 05:14:00,42.6,39.6,30.00,East,83,0.0,0.0,89,0.00,,,0.00,0,Wunderground v.1.15,2013-03-04 13:14:00,
2013-03-04 05:20:00,42.5,39.5,30.01,East,83,0.0,0.0,89,0.00,,,0.00,0,Wunderground v.1.15,2013-03-04 13:20:00,
2013-03-04 05:26:00,42.4,39.7,30.01,East,83,0.0,0.0,90,0.00,,,0.00,0,Wunderground v.1.15,2013-03-04 13:26:00,
2013-03-04 05:32:00,42.3,39.6,30.01,East,83,0.0,0.0,90,0.00,,,0.00,0,Wunderground v.1.15,2013-03-04 13:32:00,
2013-03-04 05:38:00,42.3,39.6,30.01,East,83,0.0,0.0,90,0.00,,,0.00,0,Wunderground v.1.15,2013-03-04 13:38:00,
2013-03-04 05:44:00,42.3,39.6,30.01,East,83,0.0,0.0,90,0.00,,,0.00,0,Wunderground v.1.15,2013-03-04 13:44:00,
2013-03-04 05:50:00,42.3,39.6,30.01,East,83,0.0,0.0,90,0.00,,,0.00,0,Wunderground v.1.15,2013-03-04 13:50:00,
2013-03-04 05:56:00,42.2,39.5,30.01,East,83,0.0,0.0,90,0.00,,,0.00,0,Wunderground v.1.15,2013-03-04 13:56:00,
2013-03-04 06:02:00,42.2,39.5,30.01,East,83,0.0,0.0,90,0.00,,,0.00,0,Wunderground v.1.15,2013-03-04 14:02:00,
2013-03-04 06:08:00,42.1,39.4,30.01,East,83,0.0,0.0,90,0.00,,,0.00,0,Wunderground v.1.15,2013-03-04 14:08:00,
2013-03-04 06:14:00,42.0,39.3,30.01,East,83,0.0,0.0,90,0.00,,,0.00,0,Wunderground v.1.15,2013-03-04 14:14:00,
2013-03-04 06:20:00,42.0,39.3,30.02,East,83,0.0,0.0,90,0.00,,,0.00,0,Wunderground v.1.15,2013-03-04 14:20:00,
2013-03-04 06:26:00,42.0,39.3,30.02,East,83,0.0,0.0,90,0.00,,,0.00,0,Wunderground v.1.15,2013-03-04 14:26:00,
2013-03-04 06:32:00,41.9,39.2,30.02,East,83,0.0,0.0,90,0.00,,,0.00,0,Wunderground v.1.15,2013-03-04 14:32:00,
2013-03-04 06:38:00,41.9,39.2,30.02,East,83,0.0,0.0,90,0.00,,,0.00,7,Wunderground v.1.15,2013-03-04 14:38:00,
2013-03-04 06:44:00,42.1,39.4,30.02,East,83,0.0,0.0,90,0.00,,,0.00,12,Wunderground v.1.15,2013-03-04 14:44:00,
2013-03-04 06:50:00,42.3,39.6,30.02,East,83,0.0,0.0,90,0.00,,,0.00,18,Wunderground v.1.15,2013-03-04 14:50:00,
2013-03-04 06:56:00,42.3,39.6,30.02,East,83,0.0,0.0,90,0.00,,,0.00,23,Wunderground v.1.15,2013-03-04 14:56:00,
2013-03-04 07:02:00,42.4,39.7,30.02,East,83,0.0,0.0,90,0.00,,,0.00,30,Wunderground v.1.15,2013-03-04 15:02:00,
2013-03-04 07:08:00,42.6,39.9,30.02,East,82,0.0,0.0,90,0.00,,,0.00,39,Wunderground v.1.15,2013-03-04 15:08:00,
2013-03-04 07:14:00,42.8,40.1,30.02,East,82,0.0,0.0,90,0.00,,,0.00,47,Wunderground v.1.15,2013-03-04 15:14:00,
2013-03-04 07:20:00,42.8,40.4,30.03,East,82,0.0,0.0,91,0.00,,,0.00,62,Wunderground v.1.15,2013-03-04 15:20:00,
2013-03-04 07:26:00,42.9,40.5,30.03,East,82,0.0,0.0,91,0.00,,,0.00,81,Wunderground v.1.15,2013-03-04 15:26:00,
2013-03-04 07:32:00,43.2,40.5,30.03,East,82,0.0,0.0,90,0.00,,,0.00,100,Wunderground v.1.15,2013-03-04 15:32:00,
2013-03-04 07:38:00,43.6,41.1,30.03,East,80,0.0,0.0,91,0.00,,,0.00,123,Wunderground v.1.15,2013-03-04 15:38:00,
2013-03-04 07:44:00,44.0,41.3,30.03,ENE,78,0.0,0.0,90,0.00,,,0.00,144,Wunderground v.1.15,2013-03-04 15:44:00,
2013-03-04 07:50:00,44.4,41.9,30.03,ENE,78,0.0,0.0,91,0.00,,,0.00,153,Wunderground v.1.15,2013-03-04 15:50:00,
2013-03-04 07:56:00,44.5,41.7,30.03,ENE,78,0.0,1.0,90,0.00,,,0.00,139,Wunderground v.1.15,2013-03-04 15:56:00,